Terminal Aerodrome Forecast
Issued by NWS

Home | Current Version | Previous Version | Text Only | Print | Product List | Glossary On
Versions: 1 2 3 4 5 6 7 8 9 10 11 12 13 14 15 16 17 18 19 20 21 22 23 24 25 26 27 28 29 30 31 32 33 34 35 36 37 38 39 40 41 42 43 44 45 46 47 48 49 50
000
FTUS45 KPSR 210151 AAB
TAFPHX
TAF AMD
KPHX 210151Z 2102/2206 26012G18KT P6SM FEW100 BKN180
     FM210300 25008KT P6SM FEW100 BKN120
     FM211100 13005KT P6SM BKN080
     FM211600 25012G18KT P6SM FEW070 BKN160
     FM220200 27006KT P6SM FEW080 SCT250=

USA.gov is the U.S. government's official web portal to all federal, state and local government web resources and services.